sensor_id;sensor_type;location;lat;lon;timestamp;P1;durP1;ratioP1;P2;durP2;ratioP2
9140;SDS011;46330;50.822;7.126;2023-07-16T00:01:49;5.57;;;1.40;;
9140;SDS011;46330;50.822;7.126;2023-07-16T00:04:17;4.18;;;1.30;;
9140;SDS011;46330;50.822;7.126;2023-07-16T00:06:46;3.38;;;1.40;;
9140;SDS011;46330;50.822;7.126;2023-07-16T00:09:14;2.83;;;1.45;;
9140;SDS011;46330;50.822;7.126;2023-07-16T00:11:42;3.78;;;1.50;;
9140;SDS011;46330;50.822;7.126;2023-07-16T00:14:10;2.63;;;1.30;;
9140;SDS011;46330;50.822;7.126;2023-07-16T00:16:38;4.25;;;1.40;;
9140;SDS011;46330;50.822;7.126;2023-07-16T00:19:06;5.20;;;1.70;;
9140;SDS011;46330;50.822;7.126;2023-07-16T00:21:34;3.65;;;1.52;;
9140;SDS011;46330;50.822;7.126;2023-07-16T00:24:05;2.85;;;1.50;;
9140;SDS011;46330;50.822;7.126;2023-07-16T00:26:33;3.55;;;1.50;;
9140;SDS011;46330;50.822;7.126;2023-07-16T00:29:01;4.00;;;1.60;;
9140;SDS011;46330;50.822;7.126;2023-07-16T00:31:29;4.07;;;1.60;;
9140;SDS011;46330;50.822;7.126;2023-07-16T00:33:56;3.05;;;1.50;;
9140;SDS011;46330;50.822;7.126;2023-07-16T00:36:25;3.17;;;1.40;;
9140;SDS011;46330;50.822;7.126;2023-07-16T00:38:52;3.58;;;1.60;;
9140;SDS011;46330;50.822;7.126;2023-07-16T00:41:22;3.22;;;1.52;;
9140;SDS011;46330;50.822;7.126;2023-07-16T00:43:50;5.28;;;1.50;;
9140;SDS011;46330;50.822;7.126;2023-07-16T00:46:19;3.33;;;1.50;;
9140;SDS011;46330;50.822;7.126;2023-07-16T00:48:47;4.03;;;1.60;;
9140;SDS011;46330;50.822;7.126;2023-07-16T00:51:15;3.53;;;1.70;;
9140;SDS011;46330;50.822;7.126;2023-07-16T00:53:43;5.10;;;1.40;;
9140;SDS011;46330;50.822;7.126;2023-07-16T00:56:12;2.17;;;1.30;;
9140;SDS011;46330;50.822;7.126;2023-07-16T00:58:46;3.35;;;1.48;;
9140;SDS011;46330;50.822;7.126;2023-07-16T01:01:14;1.58;;;1.20;;
9140;SDS011;46330;50.822;7.126;2023-07-16T01:03:42;2.90;;;1.55;;
9140;SDS011;46330;50.822;7.126;2023-07-16T01:06:11;2.25;;;1.23;;
9140;SDS011;46330;50.822;7.126;2023-07-16T01:08:45;4.97;;;1.57;;
9140;SDS011;46330;50.822;7.126;2023-07-16T01:11:14;3.90;;;1.40;;
9140;SDS011;46330;50.822;7.126;2023-07-16T01:13:43;2.28;;;1.27;;
9140;SDS011;46330;50.822;7.126;2023-07-16T01:16:19;4.05;;;1.58;;
9140;SDS011;46330;50.822;7.126;2023-07-16T01:18:49;3.58;;;1.60;;
9140;SDS011;46330;50.822;7.126;2023-07-16T01:21:18;4.05;;;1.38;;
9140;SDS011;46330;50.822;7.126;2023-07-16T01:23:56;6.57;;;1.98;;
9140;SDS011;46330;50.822;7.126;2023-07-16T01:26:35;5.22;;;1.30;;
9140;SDS011;46330;50.822;7.126;2023-07-16T01:29:24;3.88;;;1.65;;
9140;SDS011;46330;50.822;7.126;2023-07-16T01:31:56;4.47;;;1.60;;
9140;SDS011;46330;50.822;7.126;2023-07-16T01:34:28;5.30;;;1.40;;
9140;SDS011;46330;50.822;7.126;2023-07-16T01:36:59;3.88;;;1.63;;
9140;SDS011;46330;50.822;7.126;2023-07-16T01:39:28;4.18;;;1.48;;
9140;SDS011;46330;50.822;7.126;2023-07-16T01:41:59;2.55;;;1.50;;
9140;SDS011;46330;50.822;7.126;2023-07-16T01:44:28;5.93;;;1.60;;
9140;SDS011;46330;50.822;7.126;2023-07-16T01:47:04;4.18;;;1.50;;
9140;SDS011;46330;50.822;7.126;2023-07-16T01:49:35;6.20;;;1.50;;
9140;SDS011;46330;50.822;7.126;2023-07-16T01:52:03;2.65;;;1.60;;
9140;SDS011;46330;50.822;7.126;2023-07-16T01:54:32;5.40;;;1.45;;
9140;SDS011;46330;50.822;7.126;2023-07-16T01:57:00;8.10;;;1.70;;
9140;SDS011;46330;50.822;7.126;2023-07-16T01:59:30;3.38;;;1.48;;
9140;SDS011;46330;50.822;7.126;2023-07-16T02:01:58;2.55;;;1.40;;
9140;SDS011;46330;50.822;7.126;2023-07-16T02:04:25;5.90;;;1.52;;
9140;SDS011;46330;50.822;7.126;2023-07-16T02:06:53;5.05;;;1.50;;
9140;SDS011;46330;50.822;7.126;2023-07-16T02:09:21;3.10;;;1.60;;
9140;SDS011;46330;50.822;7.126;2023-07-16T02:11:49;4.30;;;1.55;;
9140;SDS011;46330;50.822;7.126;2023-07-16T02:14:17;4.05;;;1.60;;
9140;SDS011;46330;50.822;7.126;2023-07-16T02:16:47;2.95;;;1.52;;
9140;SDS011;46330;50.822;7.126;2023-07-16T02:19:15;4.82;;;1.85;;
9140;SDS011;46330;50.822;7.126;2023-07-16T02:21:43;4.45;;;1.50;;
9140;SDS011;46330;50.822;7.126;2023-07-16T02:24:11;2.53;;;1.30;;
9140;SDS011;46330;50.822;7.126;2023-07-16T02:26:39;6.10;;;1.60;;
9140;SDS011;46330;50.822;7.126;2023-07-16T02:29:10;3.03;;;1.60;;
9140;SDS011;46330;50.822;7.126;2023-07-16T02:31:38;3.90;;;1.60;;
9140;SDS011;46330;50.822;7.126;2023-07-16T02:34:09;5.93;;;1.55;;
9140;SDS011;46330;50.822;7.126;2023-07-16T02:36:37;3.15;;;1.45;;
9140;SDS011;46330;50.822;7.126;2023-07-16T02:39:05;3.70;;;1.55;;
9140;SDS011;46330;50.822;7.126;2023-07-16T02:41:33;3.50;;;1.60;;
9140;SDS011;46330;50.822;7.126;2023-07-16T02:44:01;3.97;;;1.50;;
9140;SDS011;46330;50.822;7.126;2023-07-16T02:46:31;3.95;;;1.55;;
9140;SDS011;46330;50.822;7.126;2023-07-16T02:53:01;5.03;;;1.67;;
9140;SDS011;46330;50.822;7.126;2023-07-16T02:55:28;2.20;;;1.27;;
9140;SDS011;46330;50.822;7.126;2023-07-16T02:57:56;4.80;;;1.70;;
9140;SDS011;46330;50.822;7.126;2023-07-16T03:00:26;3.80;;;1.60;;
9140;SDS011;46330;50.822;7.126;2023-07-16T03:02:54;3.20;;;1.52;;
9140;SDS011;46330;50.822;7.126;2023-07-16T03:05:22;5.00;;;2.53;;
9140;SDS011;46330;50.822;7.126;2023-07-16T03:07:50;3.78;;;1.58;;
9140;SDS011;46330;50.822;7.126;2023-07-16T03:10:19;4.13;;;1.55;;
9140;SDS011;46330;50.822;7.126;2023-07-16T03:12:47;5.57;;;1.63;;
9140;SDS011;46330;50.822;7.126;2023-07-16T03:15:15;3.90;;;1.77;;
9140;SDS011;46330;50.822;7.126;2023-07-16T03:17:43;4.97;;;1.58;;
9140;SDS011;46330;50.822;7.126;2023-07-16T03:20:12;5.88;;;2.10;;
9140;SDS011;46330;50.822;7.126;2023-07-16T03:22:40;5.15;;;1.85;;
9140;SDS011;46330;50.822;7.126;2023-07-16T03:25:08;4.07;;;1.65;;
9140;SDS011;46330;50.822;7.126;2023-07-16T03:27:37;4.07;;;1.60;;
9140;SDS011;46330;50.822;7.126;2023-07-16T03:30:05;6.78;;;1.80;;
9140;SDS011;46330;50.822;7.126;2023-07-16T03:32:34;5.30;;;1.60;;
9140;SDS011;46330;50.822;7.126;2023-07-16T03:35:18;4.90;;;1.70;;
9140;SDS011;46330;50.822;7.126;2023-07-16T03:37:49;3.55;;;1.67;;
9140;SDS011;46330;50.822;7.126;2023-07-16T03:40:21;8.38;;;2.13;;
9140;SDS011;46330;50.822;7.126;2023-07-16T03:42:52;5.13;;;1.85;;
9140;SDS011;46330;50.822;7.126;2023-07-16T03:45:23;5.47;;;1.80;;
9140;SDS011;46330;50.822;7.126;2023-07-16T03:47:52;5.72;;;1.70;;
9140;SDS011;46330;50.822;7.126;2023-07-16T03:50:20;3.60;;;1.80;;
9140;SDS011;46330;50.822;7.126;2023-07-16T03:52:48;8.85;;;2.03;;
9140;SDS011;46330;50.822;7.126;2023-07-16T03:55:16;6.38;;;1.60;;
9140;SDS011;46330;50.822;7.126;2023-07-16T03:57:44;3.70;;;1.70;;
9140;SDS011;46330;50.822;7.126;2023-07-16T04:00:13;9.93;;;1.70;;
9140;SDS011;46330;50.822;7.126;2023-07-16T04:02:46;6.07;;;1.92;;
9140;SDS011;46330;50.822;7.126;2023-07-16T04:05:16;7.72;;;1.90;;
9140;SDS011;46330;50.822;7.126;2023-07-16T04:07:49;6.95;;;2.28;;
9140;SDS011;46330;50.822;7.126;2023-07-16T04:10:17;6.30;;;2.00;;
9140;SDS011;46330;50.822;7.126;2023-07-16T04:12:45;4.13;;;1.70;;
9140;SDS011;46330;50.822;7.126;2023-07-16T04:15:14;4.05;;;1.85;;
9140;SDS011;46330;50.822;7.126;2023-07-16T04:17:42;5.55;;;1.85;;
9140;SDS011;46330;50.822;7.126;2023-07-16T04:20:10;5.78;;;1.80;;
9140;SDS011;46330;50.822;7.126;2023-07-16T04:22:38;6.82;;;1.77;;
9140;SDS011;46330;50.822;7.126;2023-07-16T04:25:06;5.00;;;1.85;;
9140;SDS011;46330;50.822;7.126;2023-07-16T04:27:35;5.88;;;1.52;;
9140;SDS011;46330;50.822;7.126;2023-07-16T04:30:03;5.05;;;1.67;;
9140;SDS011;46330;50.822;7.126;2023-07-16T04:32:33;6.85;;;1.70;;
9140;SDS011;46330;50.822;7.126;2023-07-16T04:35:01;5.13;;;1.75;;
9140;SDS011;46330;50.822;7.126;2023-07-16T04:37:29;5.13;;;1.45;;
9140;SDS011;46330;50.822;7.126;2023-07-16T04:39:57;4.57;;;1.67;;
9140;SDS011;46330;50.822;7.126;2023-07-16T04:42:25;4.95;;;1.60;;
9140;SDS011;46330;50.822;7.126;2023-07-16T04:44:53;4.55;;;1.80;;
9140;SDS011;46330;50.822;7.126;2023-07-16T04:47:21;7.65;;;2.13;;
9140;SDS011;46330;50.822;7.126;2023-07-16T04:49:50;6.85;;;1.75;;
9140;SDS011;46330;50.822;7.126;2023-07-16T04:52:18;7.78;;;2.22;;
9140;SDS011;46330;50.822;7.126;2023-07-16T04:54:46;6.28;;;2.00;;
9140;SDS011;46330;50.822;7.126;2023-07-16T04:57:14;4.93;;;1.90;;
9140;SDS011;46330;50.822;7.126;2023-07-16T04:59:42;3.88;;;1.90;;
9140;SDS011;46330;50.822;7.126;2023-07-16T05:02:10;7.20;;;2.30;;
9140;SDS011;46330;50.822;7.126;2023-07-16T05:04:38;8.70;;;2.00;;
9140;SDS011;46330;50.822;7.126;2023-07-16T05:07:07;3.47;;;1.60;;
9140;SDS011;46330;50.822;7.126;2023-07-16T05:09:35;4.20;;;1.80;;
9140;SDS011;46330;50.822;7.126;2023-07-16T05:12:04;6.35;;;1.92;;
9140;SDS011;46330;50.822;7.126;2023-07-16T05:14:42;8.23;;;1.85;;
9140;SDS011;46330;50.822;7.126;2023-07-16T05:17:11;4.28;;;1.67;;
9140;SDS011;46330;50.822;7.126;2023-07-16T05:19:39;9.27;;;2.00;;
9140;SDS011;46330;50.822;7.126;2023-07-16T05:22:10;7.50;;;2.00;;
9140;SDS011;46330;50.822;7.126;2023-07-16T05:24:37;4.47;;;1.80;;
9140;SDS011;46330;50.822;7.126;2023-07-16T05:27:05;3.42;;;1.70;;
9140;SDS011;46330;50.822;7.126;2023-07-16T05:29:33;5.20;;;1.85;;
9140;SDS011;46330;50.822;7.126;2023-07-16T05:32:01;7.15;;;2.05;;
9140;SDS011;46330;50.822;7.126;2023-07-16T05:34:30;4.63;;;1.85;;
9140;SDS011;46330;50.822;7.126;2023-07-16T05:36:57;9.05;;;1.90;;
9140;SDS011;46330;50.822;7.126;2023-07-16T05:39:27;5.35;;;2.00;;
9140;SDS011;46330;50.822;7.126;2023-07-16T05:41:54;3.95;;;2.03;;
9140;SDS011;46330;50.822;7.126;2023-07-16T05:44:22;5.85;;;2.00;;
9140;SDS011;46330;50.822;7.126;2023-07-16T05:46:50;6.63;;;2.40;;
9140;SDS011;46330;50.822;7.126;2023-07-16T05:49:18;4.43;;;1.90;;
9140;SDS011;46330;50.822;7.126;2023-07-16T05:51:46;6.47;;;2.20;;
9140;SDS011;46330;50.822;7.126;2023-07-16T05:54:14;5.85;;;2.05;;
9140;SDS011;46330;50.822;7.126;2023-07-16T05:56:44;5.70;;;2.20;;
9140;SDS011;46330;50.822;7.126;2023-07-16T05:59:12;4.22;;;2.30;;
9140;SDS011;46330;50.822;7.126;2023-07-16T06:01:40;7.60;;;2.30;;
9140;SDS011;46330;50.822;7.126;2023-07-16T06:04:07;7.97;;;2.20;;
9140;SDS011;46330;50.822;7.126;2023-07-16T06:06:36;4.28;;;2.20;;
9140;SDS011;46330;50.822;7.126;2023-07-16T06:09:03;7.20;;;2.30;;
9140;SDS011;46330;50.822;7.126;2023-07-16T06:11:31;10.65;;;2.55;;
9140;SDS011;46330;50.822;7.126;2023-07-16T06:14:00;6.10;;;2.40;;
9140;SDS011;46330;50.822;7.126;2023-07-16T06:16:28;8.52;;;2.50;;
9140;SDS011;46330;50.822;7.126;2023-07-16T06:18:57;7.70;;;2.80;;
9140;SDS011;46330;50.822;7.126;2023-07-16T06:21:25;6.18;;;2.42;;
9140;SDS011;46330;50.822;7.126;2023-07-16T06:23:53;6.53;;;2.75;;
9140;SDS011;46330;50.822;7.126;2023-07-16T06:26:20;8.45;;;2.50;;
9140;SDS011;46330;50.822;7.126;2023-07-16T06:28:48;7.13;;;2.80;;
9140;SDS011;46330;50.822;7.126;2023-07-16T06:31:18;5.95;;;2.30;;
9140;SDS011;46330;50.822;7.126;2023-07-16T06:33:46;6.68;;;2.60;;
9140;SDS011;46330;50.822;7.126;2023-07-16T06:36:14;6.63;;;3.05;;
9140;SDS011;46330;50.822;7.126;2023-07-16T06:38:42;6.80;;;2.50;;
9140;SDS011;46330;50.822;7.126;2023-07-16T06:41:10;8.10;;;2.72;;
9140;SDS011;46330;50.822;7.126;2023-07-16T06:43:37;7.72;;;2.47;;
9140;SDS011;46330;50.822;7.126;2023-07-16T06:46:05;4.53;;;2.47;;
9140;SDS011;46330;50.822;7.126;2023-07-16T06:48:35;6.40;;;2.40;;
9140;SDS011;46330;50.822;7.126;2023-07-16T06:51:02;8.25;;;2.53;;
9140;SDS011;46330;50.822;7.126;2023-07-16T06:53:30;6.18;;;2.47;;
9140;SDS011;46330;50.822;7.126;2023-07-16T06:55:58;5.45;;;2.30;;
9140;SDS011;46330;50.822;7.126;2023-07-16T06:58:30;7.25;;;2.45;;
9140;SDS011;46330;50.822;7.126;2023-07-16T07:00:59;7.68;;;2.70;;
9140;SDS011;46330;50.822;7.126;2023-07-16T07:03:27;5.75;;;2.50;;
9140;SDS011;46330;50.822;7.126;2023-07-16T07:05:57;5.05;;;2.40;;
9140;SDS011;46330;50.822;7.126;2023-07-16T07:08:25;8.70;;;2.60;;
9140;SDS011;46330;50.822;7.126;2023-07-16T07:10:52;5.97;;;2.50;;
9140;SDS011;46330;50.822;7.126;2023-07-16T07:13:20;7.00;;;2.75;;
9140;SDS011;46330;50.822;7.126;2023-07-16T07:15:49;5.68;;;2.60;;
9140;SDS011;46330;50.822;7.126;2023-07-16T07:18:17;5.90;;;2.45;;
9140;SDS011;46330;50.822;7.126;2023-07-16T07:20:45;5.25;;;2.65;;
9140;SDS011;46330;50.822;7.126;2023-07-16T07:23:16;8.27;;;2.70;;
9140;SDS011;46330;50.822;7.126;2023-07-16T07:25:48;6.30;;;2.50;;
9140;SDS011;46330;50.822;7.126;2023-07-16T07:28:18;5.93;;;2.60;;
9140;SDS011;46330;50.822;7.126;2023-07-16T07:30:47;6.72;;;2.53;;
9140;SDS011;46330;50.822;7.126;2023-07-16T07:33:14;3.95;;;2.35;;
9140;SDS011;46330;50.822;7.126;2023-07-16T07:35:42;5.90;;;2.65;;
9140;SDS011;46330;50.822;7.126;2023-07-16T07:38:10;7.38;;;2.78;;
9140;SDS011;46330;50.822;7.126;2023-07-16T07:40:39;8.25;;;2.80;;
9140;SDS011;46330;50.822;7.126;2023-07-16T07:43:10;6.90;;;2.63;;
9140;SDS011;46330;50.822;7.126;2023-07-16T07:45:37;7.03;;;2.80;;
9140;SDS011;46330;50.822;7.126;2023-07-16T07:48:05;6.35;;;2.50;;
9140;SDS011;46330;50.822;7.126;2023-07-16T07:50:33;7.88;;;2.60;;
9140;SDS011;46330;50.822;7.126;2023-07-16T07:53:01;6.18;;;2.70;;
9140;SDS011;46330;50.822;7.126;2023-07-16T07:55:29;5.35;;;2.80;;
9140;SDS011;46330;50.822;7.126;2023-07-16T07:57:59;7.00;;;2.42;;
9140;SDS011;46330;50.822;7.126;2023-07-16T08:00:26;5.68;;;2.85;;
9140;SDS011;46330;50.822;7.126;2023-07-16T08:02:54;6.07;;;3.00;;
9140;SDS011;46330;50.822;7.126;2023-07-16T08:05:22;8.45;;;3.00;;
9140;SDS011;46330;50.822;7.126;2023-07-16T08:07:50;7.10;;;2.45;;
9140;SDS011;46330;50.822;7.126;2023-07-16T08:10:19;4.65;;;2.70;;
9140;SDS011;46330;50.822;7.126;2023-07-16T08:12:47;5.57;;;2.75;;
9140;SDS011;46330;50.822;7.126;2023-07-16T08:15:17;7.65;;;2.85;;
9140;SDS011;46330;50.822;7.126;2023-07-16T08:17:45;7.93;;;2.97;;
9140;SDS011;46330;50.822;7.126;2023-07-16T08:20:14;5.63;;;2.95;;
9140;SDS011;46330;50.822;7.126;2023-07-16T08:22:42;6.20;;;2.50;;
9140;SDS011;46330;50.822;7.126;2023-07-16T08:25:10;5.43;;;2.50;;
9140;SDS011;46330;50.822;7.126;2023-07-16T08:27:38;5.13;;;2.80;;
9140;SDS011;46330;50.822;7.126;2023-07-16T08:30:06;5.05;;;2.80;;
9140;SDS011;46330;50.822;7.126;2023-07-16T08:32:36;8.32;;;2.95;;
9140;SDS011;46330;50.822;7.126;2023-07-16T08:35:04;5.78;;;2.70;;
9140;SDS011;46330;50.822;7.126;2023-07-16T08:37:33;6.32;;;2.50;;
9140;SDS011;46330;50.822;7.126;2023-07-16T08:40:01;4.80;;;2.40;;
9140;SDS011;46330;50.822;7.126;2023-07-16T08:42:29;7.47;;;3.50;;
9140;SDS011;46330;50.822;7.126;2023-07-16T08:44:57;5.55;;;2.72;;
9140;SDS011;46330;50.822;7.126;2023-07-16T08:47:25;4.25;;;2.67;;
9140;SDS011;46330;50.822;7.126;2023-07-16T08:49:55;6.57;;;2.72;;
9140;SDS011;46330;50.822;7.126;2023-07-16T08:52:24;6.30;;;2.70;;
9140;SDS011;46330;50.822;7.126;2023-07-16T08:54:55;6.05;;;2.75;;
9140;SDS011;46330;50.822;7.126;2023-07-16T08:57:23;4.57;;;2.80;;
9140;SDS011;46330;50.822;7.126;2023-07-16T08:59:51;7.40;;;2.72;;
9140;SDS011;46330;50.822;7.126;2023-07-16T09:02:19;4.65;;;2.60;;
9140;SDS011;46330;50.822;7.126;2023-07-16T09:04:48;6.25;;;2.38;;
9140;SDS011;46330;50.822;7.126;2023-07-16T09:07:19;4.07;;;2.30;;
9140;SDS011;46330;50.822;7.126;2023-07-16T09:09:54;5.63;;;2.20;;
9140;SDS011;46330;50.822;7.126;2023-07-16T09:12:26;4.40;;;2.40;;
9140;SDS011;46330;50.822;7.126;2023-07-16T09:14:56;4.28;;;2.35;;
9140;SDS011;46330;50.822;7.126;2023-07-16T09:17:24;5.22;;;2.50;;
9140;SDS011;46330;50.822;7.126;2023-07-16T09:19:52;4.93;;;2.10;;
9140;SDS011;46330;50.822;7.126;2023-07-16T09:22:22;4.65;;;2.25;;
9140;SDS011;46330;50.822;7.126;2023-07-16T09:24:50;6.03;;;2.42;;
9140;SDS011;46330;50.822;7.126;2023-07-16T09:27:18;3.75;;;1.90;;
9140;SDS011;46330;50.822;7.126;2023-07-16T09:29:46;4.82;;;2.13;;
9140;SDS011;46330;50.822;7.126;2023-07-16T09:32:17;3.63;;;1.98;;
9140;SDS011;46330;50.822;7.126;2023-07-16T09:34:48;3.17;;;1.85;;
9140;SDS011;46330;50.822;7.126;2023-07-16T09:37:17;4.60;;;2.08;;
9140;SDS011;46330;50.822;7.126;2023-07-16T09:39:47;8.02;;;2.15;;
9140;SDS011;46330;50.822;7.126;2023-07-16T09:42:15;2.42;;;1.83;;
9140;SDS011;46330;50.822;7.126;2023-07-16T09:44:49;4.68;;;1.95;;
9140;SDS011;46330;50.822;7.126;2023-07-16T09:47:21;4.45;;;2.20;;
9140;SDS011;46330;50.822;7.126;2023-07-16T09:49:51;4.63;;;2.00;;
9140;SDS011;46330;50.822;7.126;2023-07-16T09:52:19;5.47;;;2.17;;
9140;SDS011;46330;50.822;7.126;2023-07-16T09:54:48;6.72;;;2.03;;
9140;SDS011;46330;50.822;7.126;2023-07-16T09:57:20;4.32;;;2.00;;
9140;SDS011;46330;50.822;7.126;2023-07-16T09:59:49;4.07;;;1.90;;
9140;SDS011;46330;50.822;7.126;2023-07-16T10:02:19;3.05;;;2.10;;
9140;SDS011;46330;50.822;7.126;2023-07-16T10:04:48;5.43;;;2.30;;
9140;SDS011;46330;50.822;7.126;2023-07-16T10:07:19;6.13;;;2.00;;
9140;SDS011;46330;50.822;7.126;2023-07-16T10:09:54;4.38;;;1.90;;
9140;SDS011;46330;50.822;7.126;2023-07-16T10:12:24;5.32;;;2.75;;
9140;SDS011;46330;50.822;7.126;2023-07-16T10:14:53;3.90;;;1.95;;
9140;SDS011;46330;50.822;7.126;2023-07-16T10:17:24;6.47;;;2.20;;
9140;SDS011;46330;50.822;7.126;2023-07-16T10:19:56;4.32;;;2.30;;
9140;SDS011;46330;50.822;7.126;2023-07-16T10:22:31;3.72;;;1.90;;
9140;SDS011;46330;50.822;7.126;2023-07-16T10:25:02;4.40;;;2.10;;
9140;SDS011;46330;50.822;7.126;2023-07-16T10:27:31;3.10;;;1.73;;
9140;SDS011;46330;50.822;7.126;2023-07-16T10:29:59;3.80;;;2.00;;
9140;SDS011;46330;50.822;7.126;2023-07-16T10:32:30;2.83;;;2.00;;
9140;SDS011;46330;50.822;7.126;2023-07-16T10:34:59;4.38;;;2.05;;
9140;SDS011;46330;50.822;7.126;2023-07-16T10:37:27;5.85;;;3.13;;
9140;SDS011;46330;50.822;7.126;2023-07-16T10:39:55;3.83;;;2.00;;
9140;SDS011;46330;50.822;7.126;2023-07-16T10:42:26;6.68;;;2.10;;
9140;SDS011;46330;50.822;7.126;2023-07-16T10:44:56;2.83;;;1.60;;
9140;SDS011;46330;50.822;7.126;2023-07-16T10:47:29;3.78;;;2.00;;
9140;SDS011;46330;50.822;7.126;2023-07-16T10:49:58;3.70;;;1.83;;
9140;SDS011;46330;50.822;7.126;2023-07-16T10:52:27;3.35;;;1.83;;
9140;SDS011;46330;50.822;7.126;2023-07-16T10:54:55;3.10;;;1.95;;
9140;SDS011;46330;50.822;7.126;2023-07-16T10:57:25;3.40;;;1.67;;
9140;SDS011;46330;50.822;7.126;2023-07-16T10:59:55;2.67;;;1.65;;
9140;SDS011;46330;50.822;7.126;2023-07-16T11:02:25;3.53;;;1.88;;
9140;SDS011;46330;50.822;7.126;2023-07-16T11:04:53;4.43;;;1.80;;
9140;SDS011;46330;50.822;7.126;2023-07-16T11:07:23;4.55;;;2.22;;
9140;SDS011;46330;50.822;7.126;2023-07-16T11:09:54;3.58;;;2.17;;
9140;SDS011;46330;50.822;7.126;2023-07-16T11:12:22;4.88;;;1.75;;
9140;SDS011;46330;50.822;7.126;2023-07-16T11:14:53;3.63;;;1.77;;
9140;SDS011;46330;50.822;7.126;2023-07-16T11:17:23;4.40;;;2.03;;
9140;SDS011;46330;50.822;7.126;2023-07-16T11:19:52;2.40;;;1.50;;
9140;SDS011;46330;50.822;7.126;2023-07-16T11:22:24;3.95;;;1.80;;
9140;SDS011;46330;50.822;7.126;2023-07-16T11:24:52;3.95;;;1.92;;
9140;SDS011;46330;50.822;7.126;2023-07-16T11:27:21;6.35;;;1.90;;
9140;SDS011;46330;50.822;7.126;2023-07-16T11:29:50;3.60;;;1.90;;
9140;SDS011;46330;50.822;7.126;2023-07-16T11:32:28;4.38;;;2.05;;
9140;SDS011;46330;50.822;7.126;2023-07-16T11:34:58;4.85;;;2.30;;
9140;SDS011;46330;50.822;7.126;2023-07-16T11:37:27;4.95;;;2.10;;
9140;SDS011;46330;50.822;7.126;2023-07-16T11:39:56;4.15;;;2.10;;
9140;SDS011;46330;50.822;7.126;2023-07-16T11:42:27;3.78;;;2.10;;
9140;SDS011;46330;50.822;7.126;2023-07-16T11:44:57;4.82;;;2.00;;
9140;SDS011;46330;50.822;7.126;2023-07-16T11:47:26;4.05;;;1.80;;
9140;SDS011;46330;50.822;7.126;2023-07-16T11:49:54;5.03;;;2.42;;
9140;SDS011;46330;50.822;7.126;2023-07-16T11:52:23;2.97;;;2.05;;
9140;SDS011;46330;50.822;7.126;2023-07-16T11:54:52;3.55;;;2.00;;
9140;SDS011;46330;50.822;7.126;2023-07-16T11:57:21;6.10;;;2.15;;
9140;SDS011;46330;50.822;7.126;2023-07-16T11:59:49;3.65;;;1.92;;
9140;SDS011;46330;50.822;7.126;2023-07-16T12:02:20;4.43;;;2.17;;
9140;SDS011;46330;50.822;7.126;2023-07-16T12:04:48;4.10;;;2.00;;
9140;SDS011;46330;50.822;7.126;2023-07-16T12:07:30;7.32;;;2.10;;
9140;SDS011;46330;50.822;7.126;2023-07-16T12:10:00;4.00;;;2.00;;
9140;SDS011;46330;50.822;7.126;2023-07-16T12:12:28;3.70;;;2.03;;
9140;SDS011;46330;50.822;7.126;2023-07-16T12:14:56;3.05;;;1.90;;
9140;SDS011;46330;50.822;7.126;2023-07-16T12:17:25;3.03;;;1.90;;
9140;SDS011;46330;50.822;7.126;2023-07-16T12:19:54;3.67;;;1.92;;
9140;SDS011;46330;50.822;7.126;2023-07-16T12:22:21;4.95;;;2.40;;
9140;SDS011;46330;50.822;7.126;2023-07-16T12:24:51;3.70;;;1.90;;
9140;SDS011;46330;50.822;7.126;2023-07-16T12:27:19;4.68;;;2.15;;
9140;SDS011;46330;50.822;7.126;2023-07-16T12:29:48;2.70;;;1.92;;
9140;SDS011;46330;50.822;7.126;2023-07-16T12:32:16;5.57;;;2.10;;
9140;SDS011;46330;50.822;7.126;2023-07-16T12:34:45;4.50;;;2.10;;
9140;SDS011;46330;50.822;7.126;2023-07-16T12:37:13;4.45;;;2.00;;
9140;SDS011;46330;50.822;7.126;2023-07-16T12:39:41;5.50;;;2.50;;
9140;SDS011;46330;50.822;7.126;2023-07-16T12:42:09;4.97;;;2.25;;
9140;SDS011;46330;50.822;7.126;2023-07-16T12:44:37;7.45;;;2.08;;
9140;SDS011;46330;50.822;7.126;2023-07-16T12:47:05;3.05;;;2.05;;
9140;SDS011;46330;50.822;7.126;2023-07-16T12:49:35;6.03;;;2.38;;
9140;SDS011;46330;50.822;7.126;2023-07-16T12:52:05;5.38;;;2.55;;
9140;SDS011;46330;50.822;7.126;2023-07-16T12:54:33;4.95;;;2.38;;
9140;SDS011;46330;50.822;7.126;2023-07-16T12:57:01;5.85;;;2.33;;
9140;SDS011;46330;50.822;7.126;2023-07-16T12:59:29;5.43;;;2.05;;
9140;SDS011;46330;50.822;7.126;2023-07-16T13:01:57;8.48;;;2.30;;
9140;SDS011;46330;50.822;7.126;2023-07-16T13:04:25;4.82;;;2.10;;
9140;SDS011;46330;50.822;7.126;2023-07-16T13:06:53;5.78;;;1.90;;
9140;SDS011;46330;50.822;7.126;2023-07-16T13:09:22;4.25;;;1.95;;
9140;SDS011;46330;50.822;7.126;2023-07-16T13:11:50;5.90;;;2.28;;
9140;SDS011;46330;50.822;7.126;2023-07-16T13:14:18;5.95;;;2.17;;
9140;SDS011;46330;50.822;7.126;2023-07-16T13:16:46;7.00;;;2.20;;
9140;SDS011;46330;50.822;7.126;2023-07-16T13:19:14;4.40;;;2.40;;
9140;SDS011;46330;50.822;7.126;2023-07-16T13:21:42;5.03;;;2.17;;
9140;SDS011;46330;50.822;7.126;2023-07-16T13:24:10;4.82;;;1.98;;
9140;SDS011;46330;50.822;7.126;2023-07-16T13:26:39;4.53;;;2.10;;
9140;SDS011;46330;50.822;7.126;2023-07-16T13:29:07;4.03;;;2.00;;
9140;SDS011;46330;50.822;7.126;2023-07-16T13:31:34;3.75;;;1.92;;
9140;SDS011;46330;50.822;7.126;2023-07-16T13:34:02;4.68;;;1.92;;
9140;SDS011;46330;50.822;7.126;2023-07-16T13:36:30;4.45;;;1.98;;
9140;SDS011;46330;50.822;7.126;2023-07-16T13:38:58;3.55;;;1.92;;
9140;SDS011;46330;50.822;7.126;2023-07-16T13:41:29;4.32;;;2.05;;
9140;SDS011;46330;50.822;7.126;2023-07-16T13:43:59;6.30;;;2.22;;
9140;SDS011;46330;50.822;7.126;2023-07-16T13:46:27;8.35;;;2.30;;
9140;SDS011;46330;50.822;7.126;2023-07-16T13:48:55;4.70;;;2.00;;
9140;SDS011;46330;50.822;7.126;2023-07-16T13:51:25;4.75;;;2.13;;
9140;SDS011;46330;50.822;7.126;2023-07-16T13:53:53;5.82;;;2.25;;
9140;SDS011;46330;50.822;7.126;2023-07-16T13:56:20;4.40;;;2.13;;
9140;SDS011;46330;50.822;7.126;2023-07-16T13:58:48;6.30;;;2.60;;
9140;SDS011;46330;50.822;7.126;2023-07-16T14:01:18;5.57;;;2.10;;
9140;SDS011;46330;50.822;7.126;2023-07-16T14:03:46;5.53;;;2.40;;
9140;SDS011;46330;50.822;7.126;2023-07-16T14:06:14;4.40;;;2.13;;
9140;SDS011;46330;50.822;7.126;2023-07-16T14:08:43;7.30;;;2.22;;
9140;SDS011;46330;50.822;7.126;2023-07-16T14:11:11;4.13;;;2.25;;
9140;SDS011;46330;50.822;7.126;2023-07-16T14:13:39;4.13;;;2.03;;
9140;SDS011;46330;50.822;7.126;2023-07-16T14:16:07;3.17;;;2.00;;
9140;SDS011;46330;50.822;7.126;2023-07-16T14:18:37;5.15;;;2.20;;
9140;SDS011;46330;50.822;7.126;2023-07-16T14:21:05;4.30;;;2.10;;
9140;SDS011;46330;50.822;7.126;2023-07-16T14:23:33;4.53;;;2.30;;
9140;SDS011;46330;50.822;7.126;2023-07-16T14:26:01;4.80;;;2.10;;
9140;SDS011;46330;50.822;7.126;2023-07-16T14:28:29;3.97;;;2.15;;
9140;SDS011;46330;50.822;7.126;2023-07-16T14:30:57;6.10;;;2.13;;
9140;SDS011;46330;50.822;7.126;2023-07-16T14:33:25;4.93;;;2.22;;
9140;SDS011;46330;50.822;7.126;2023-07-16T14:35:55;4.00;;;2.20;;
9140;SDS011;46330;50.822;7.126;2023-07-16T14:38:23;4.63;;;2.30;;
9140;SDS011;46330;50.822;7.126;2023-07-16T14:40:51;4.72;;;2.47;;
9140;SDS011;46330;50.822;7.126;2023-07-16T14:43:18;6.10;;;2.40;;
9140;SDS011;46330;50.822;7.126;2023-07-16T14:45:47;4.43;;;2.10;;
9140;SDS011;46330;50.822;7.126;2023-07-16T14:48:15;5.82;;;2.28;;
9140;SDS011;46330;50.822;7.126;2023-07-16T14:50:43;5.57;;;2.08;;
9140;SDS011;46330;50.822;7.126;2023-07-16T14:53:12;5.55;;;2.30;;
9140;SDS011;46330;50.822;7.126;2023-07-16T14:55:45;8.35;;;2.30;;
9140;SDS011;46330;50.822;7.126;2023-07-16T14:58:14;4.65;;;2.03;;
9140;SDS011;46330;50.822;7.126;2023-07-16T15:00:42;6.63;;;3.38;;
9140;SDS011;46330;50.822;7.126;2023-07-16T15:03:09;7.25;;;2.60;;
9140;SDS011;46330;50.822;7.126;2023-07-16T15:05:38;5.07;;;2.10;;
9140;SDS011;46330;50.822;7.126;2023-07-16T15:08:06;6.38;;;2.30;;
9140;SDS011;46330;50.822;7.126;2023-07-16T15:10:35;5.35;;;2.20;;
9140;SDS011;46330;50.822;7.126;2023-07-16T15:13:03;4.55;;;2.15;;
9140;SDS011;46330;50.822;7.126;2023-07-16T15:15:31;4.50;;;2.00;;